createdAt,value
2023-01-20T00:00:17.308Z,97.85
2023-01-20T00:01:17.945Z,97.95
2023-01-20T00:02:17.318Z,98.26
2023-01-20T00:03:17.297Z,98.16
2023-01-20T00:04:17.263Z,98.16
2023-01-20T00:05:17.252Z,97.99
2023-01-20T00:06:17.244Z,98.16
2023-01-20T00:07:17.234Z,97.95
2023-01-20T00:08:17.225Z,97.85
2023-01-20T00:09:17.223Z,97.95
2023-01-20T00:10:17.207Z,98.16
2023-01-20T00:11:17.218Z,98.26
2023-01-20T00:12:17.190Z,98.16
2023-01-20T00:13:17.179Z,98.26
2023-01-20T00:14:17.178Z,98.05
2023-01-20T00:15:17.172Z,98.26
2023-01-20T00:16:17.172Z,98.26
2023-01-20T00:17:17.140Z,98.16
2023-01-20T00:18:17.139Z,97.64
2023-01-20T00:19:17.133Z,98.36
2023-01-20T00:20:17.119Z,98.36
2023-01-20T00:21:17.103Z,98.16
2023-01-20T00:22:17.102Z,98.36
2023-01-20T00:23:17.089Z,97.70
2023-01-20T00:24:17.083Z,98.16
2023-01-20T00:25:17.070Z,98.05
2023-01-20T00:26:17.058Z,98.26
2023-01-20T00:27:19.631Z,98.16
2023-01-20T00:28:17.039Z,98.11
2023-01-20T00:29:17.032Z,98.05
2023-01-20T00:30:17.030Z,98.36
2023-01-20T00:31:17.075Z,98.36
2023-01-20T00:32:17.001Z,98.32
2023-01-20T00:33:16.998Z,98.22
2023-01-20T00:34:16.986Z,98.47
2023-01-20T00:35:16.976Z,98.22
2023-01-20T00:36:16.970Z,98.01
2023-01-20T00:37:16.965Z,98.36
2023-01-20T00:38:16.951Z,98.16
2023-01-20T00:39:16.939Z,98.01
2023-01-20T00:40:16.932Z,98.01
2023-01-20T00:41:16.920Z,97.95
2023-01-20T00:42:16.927Z,98.05
2023-01-20T00:43:16.921Z,97.80
2023-01-20T00:44:16.894Z,98.11
2023-01-20T00:45:16.885Z,97.80
2023-01-20T00:46:16.921Z,97.80
2023-01-20T00:47:16.866Z,98.01
2023-01-20T00:48:16.855Z,97.74
2023-01-20T00:49:16.847Z,97.43
2023-01-20T00:50:16.843Z,97.53
2023-01-20T00:51:16.832Z,97.01
2023-01-20T00:52:16.820Z,97.53
2023-01-20T00:53:16.810Z,97.43
2023-01-20T00:54:16.804Z,97.33
2023-01-20T00:55:16.791Z,97.95
2023-01-20T00:56:16.780Z,97.95
2023-01-20T00:57:16.775Z,97.74
2023-01-20T00:58:16.785Z,98.26
2023-01-20T00:59:16.777Z,97.95
2023-01-20T01:00:16.750Z,97.99
2023-01-20T01:01:16.850Z,97.58
2023-01-20T01:02:16.764Z,97.68
2023-01-20T01:03:16.721Z,97.27
2023-01-20T01:04:16.713Z,97.78
2023-01-20T01:05:16.703Z,97.72
2023-01-20T01:06:16.699Z,97.47
2023-01-20T01:07:16.684Z,97.62
2023-01-20T01:08:16.682Z,98.14
2023-01-20T01:09:16.664Z,97.83
2023-01-20T01:10:16.657Z,98.46
2023-01-20T01:11:18.596Z,98.04
2023-01-20T01:12:16.641Z,98.46
2023-01-20T01:13:16.629Z,98.52
2023-01-20T01:14:16.615Z,98.52
2023-01-20T01:15:16.653Z,98.56
2023-01-20T01:16:16.669Z,98.35
2023-01-20T01:17:16.589Z,98.10
2023-01-20T01:18:16.576Z,98.56
2023-01-20T01:19:16.569Z,98.35
2023-01-20T01:20:16.559Z,98.35
2023-01-20T01:21:16.569Z,98.56
2023-01-20T01:22:16.540Z,98.46
2023-01-20T01:23:16.540Z,98.66
2023-01-20T01:24:16.523Z,98.25
2023-01-20T01:25:16.520Z,98.56
2023-01-20T01:26:16.511Z,98.77
2023-01-20T01:27:16.495Z,98.50
2023-01-20T01:28:16.484Z,98.77
2023-01-20T01:29:16.477Z,98.87
2023-01-20T01:30:16.463Z,98.71
2023-01-20T01:31:16.507Z,98.92
2023-01-20T01:32:16.448Z,98.50
2023-01-20T01:33:16.438Z,98.82
2023-01-20T01:34:16.431Z,98.19
2023-01-20T01:35:16.911Z,98.39
2023-01-20T01:36:16.410Z,98.60
2023-01-20T01:37:16.404Z,99.02
2023-01-20T01:38:16.389Z,98.82
2023-01-20T01:39:16.391Z,98.92
2023-01-20T01:40:16.371Z,98.82
2023-01-20T01:41:16.368Z,99.02
2023-01-20T01:42:16.351Z,98.50
2023-01-20T01:43:16.346Z,98.60
2023-01-20T01:44:16.332Z,98.60
2023-01-20T01:45:16.673Z,98.29
2023-01-20T01:46:16.318Z,98.71
2023-01-20T01:47:16.325Z,98.60
2023-01-20T01:48:16.298Z,98.56
2023-01-20T01:49:16.289Z,98.87
2023-01-20T01:50:16.283Z,98.97
2023-01-20T01:51:16.270Z,99.18
2023-01-20T01:52:16.260Z,98.46
2023-01-20T01:53:16.249Z,98.39
2023-01-20T01:54:16.240Z,98.46
2023-01-20T01:55:16.433Z,98.46
2023-01-20T01:56:16.222Z,98.46
2023-01-20T01:57:16.210Z,97.83
2023-01-20T01:58:16.207Z,98.46
2023-01-20T01:59:16.194Z,98.04
2023-01-20T02:00:16.187Z,98.35
2023-01-20T02:01:16.354Z,98.04
2023-01-20T02:02:17.220Z,97.94
2023-01-20T02:03:16.175Z,97.56
2023-01-20T02:04:16.148Z,97.94
2023-01-20T02:05:16.484Z,97.67
2023-01-20T02:06:16.125Z,97.62
2023-01-20T02:07:16.147Z,97.72
2023-01-20T02:08:16.116Z,97.88
2023-01-20T02:09:16.111Z,97.72
2023-01-20T02:10:16.088Z,98.04
2023-01-20T02:11:16.081Z,98.04
2023-01-20T02:12:16.068Z,97.72
2023-01-20T02:13:16.064Z,97.72
2023-01-20T02:14:16.057Z,98.14
2023-01-20T02:15:16.448Z,97.72
2023-01-20T02:16:16.090Z,98.04
2023-01-20T02:17:16.029Z,97.94
2023-01-20T02:18:16.014Z,97.62
2023-01-20T02:19:16.023Z,97.94
2023-01-20T02:20:16.004Z,97.72
2023-01-20T02:21:18.742Z,97.72
2023-01-20T02:22:15.974Z,97.62
2023-01-20T02:23:15.966Z,97.98
2023-01-20T02:24:15.956Z,97.62
2023-01-20T02:25:16.348Z,97.77
2023-01-20T02:26:15.941Z,97.98
2023-01-20T02:27:15.933Z,98.46
2023-01-20T02:28:15.923Z,98.14
2023-01-20T02:29:15.911Z,98.35
2023-01-20T02:30:15.959Z,98.29
2023-01-20T02:31:15.913Z,98.25
2023-01-20T02:32:15.886Z,98.46
2023-01-20T02:33:15.879Z,98.04
2023-01-20T02:34:15.860Z,98.04
2023-01-20T02:35:16.226Z,98.14
2023-01-20T02:36:15.862Z,98.29
2023-01-20T02:37:15.833Z,98.29
2023-01-20T02:38:15.825Z,98.19
2023-01-20T02:39:27.324Z,98.19
2023-01-20T02:40:15.805Z,98.29
2023-01-20T02:41:15.800Z,98.25
2023-01-20T02:42:15.786Z,98.25
2023-01-20T02:43:15.789Z,98.35
2023-01-20T02:44:15.769Z,98.14
2023-01-20T02:45:16.232Z,98.14
2023-01-20T02:46:15.748Z,98.35
2023-01-20T02:47:15.747Z,98.14
2023-01-20T02:48:15.735Z,98.25
2023-01-20T02:49:15.723Z,98.35
2023-01-20T02:50:15.710Z,98.14
2023-01-20T02:51:15.955Z,98.35
2023-01-20T02:52:15.702Z,98.19
2023-01-20T02:53:15.688Z,98.25
2023-01-20T02:54:15.681Z,98.25
2023-01-20T02:55:15.962Z,97.94
2023-01-20T02:56:15.654Z,98.46
2023-01-20T02:57:15.648Z,98.60
2023-01-20T02:58:15.644Z,98.46
2023-01-20T02:59:15.626Z,98.25
2023-01-20T03:00:15.617Z,98.46
2023-01-20T03:01:15.749Z,98.39
2023-01-20T03:02:15.603Z,98.50
2023-01-20T03:03:15.600Z,98.19
2023-01-20T03:04:15.578Z,98.08
2023-01-20T03:05:15.812Z,98.50
2023-01-20T03:06:15.560Z,98.60
2023-01-20T03:07:15.568Z,98.19
2023-01-20T03:08:15.544Z,98.50
2023-01-20T03:09:16.539Z,98.60
2023-01-20T03:10:15.522Z,98.19
2023-01-20T03:11:15.512Z,98.29
2023-01-20T03:12:15.507Z,98.29
2023-01-20T03:13:15.492Z,98.29
2023-01-20T03:14:15.502Z,98.29
2023-01-20T03:15:15.913Z,98.39
2023-01-20T03:16:15.544Z,98.39
2023-01-20T03:17:15.457Z,98.60
2023-01-20T03:18:15.443Z,98.60
2023-01-20T03:19:15.436Z,98.60
2023-01-20T03:20:15.429Z,98.50
2023-01-20T03:21:15.420Z,98.39
2023-01-20T03:22:15.500Z,98.71
2023-01-20T03:23:15.432Z,98.82
2023-01-20T03:24:15.394Z,98.60
2023-01-20T03:25:15.755Z,98.46
2023-01-20T03:26:15.369Z,98.39
2023-01-20T03:27:15.358Z,98.19
2023-01-20T03:28:15.349Z,98.39
2023-01-20T03:29:15.342Z,97.98
2023-01-20T03:30:15.339Z,98.19
2023-01-20T03:31:15.510Z,98.25
2023-01-20T03:32:15.313Z,98.25
2023-01-20T03:33:15.307Z,97.72
2023-01-20T03:34:15.302Z,98.14
2023-01-20T03:35:15.612Z,98.25
2023-01-20T03:36:15.275Z,98.25
2023-01-20T03:37:15.264Z,98.56
2023-01-20T03:38:15.257Z,97.83
2023-01-20T03:39:15.266Z,97.72
2023-01-20T03:40:15.235Z,98.35
2023-01-20T03:41:15.227Z,98.25
2023-01-20T03:42:15.229Z,97.94
2023-01-20T03:43:15.206Z,97.99
2023-01-20T03:44:15.201Z,98.14
2023-01-20T03:45:15.538Z,97.83
2023-01-20T03:46:15.225Z,98.10
2023-01-20T03:47:15.174Z,98.20
2023-01-20T03:48:15.175Z,98.20
2023-01-20T03:49:15.156Z,97.78
2023-01-20T03:50:15.144Z,97.78
2023-01-20T03:51:15.131Z,97.89
2023-01-20T03:52:15.126Z,97.89
2023-01-20T03:53:15.113Z,97.58
2023-01-20T03:54:15.106Z,97.53
2023-01-20T03:55:15.534Z,97.58
2023-01-20T03:56:15.089Z,97.47
2023-01-20T03:57:15.080Z,97.53
2023-01-20T03:58:15.068Z,98.05
2023-01-20T03:59:15.069Z,98.05
2023-01-20T04:00:15.511Z,98.16
2023-01-20T04:01:18.555Z,98.05
2023-01-20T04:02:15.141Z,98.05
2023-01-20T04:03:15.152Z,97.85
2023-01-20T04:04:15.028Z,98.10
2023-01-20T04:05:15.356Z,98.16
2023-01-20T04:06:14.997Z,98.26
2023-01-20T04:07:14.988Z,98.05
2023-01-20T04:08:14.973Z,97.95
2023-01-20T04:09:14.967Z,97.74
2023-01-20T04:10:14.975Z,97.95
2023-01-20T04:11:14.963Z,97.85
2023-01-20T04:12:14.938Z,97.91
2023-01-20T04:13:14.935Z,97.91
2023-01-20T04:14:14.940Z,98.01
2023-01-20T04:15:15.098Z,97.95
2023-01-20T04:16:14.903Z,97.59
2023-01-20T04:17:14.889Z,97.70
2023-01-20T04:18:14.883Z,97.53
2023-01-20T04:19:14.869Z,97.38
2023-01-20T04:20:14.863Z,97.28
2023-01-20T04:21:14.854Z,97.49
2023-01-20T04:22:14.845Z,97.17
2023-01-20T04:23:14.835Z,97.28
2023-01-20T04:24:14.824Z,97.28
2023-01-20T04:25:15.176Z,97.43
2023-01-20T04:26:14.810Z,97.38
2023-01-20T04:27:14.820Z,97.28
2023-01-20T04:28:14.790Z,97.28
2023-01-20T04:29:14.779Z,97.38
2023-01-20T04:30:14.772Z,97.64
2023-01-20T04:31:29.126Z,97.59
2023-01-20T04:32:14.755Z,97.38
2023-01-20T04:33:14.746Z,97.38
2023-01-20T04:34:14.732Z,97.49
2023-01-20T04:35:14.962Z,97.49
2023-01-20T04:36:14.713Z,97.59
2023-01-20T04:37:14.706Z,97.49
2023-01-20T04:38:14.697Z,97.59
2023-01-20T04:39:14.696Z,97.38
2023-01-20T04:40:14.676Z,96.86
2023-01-20T04:41:14.666Z,97.07
2023-01-20T04:42:14.662Z,97.07
2023-01-20T04:43:14.672Z,97.07
2023-01-20T04:44:14.639Z,96.86
2023-01-20T04:45:14.914Z,97.59
2023-01-20T04:46:14.633Z,97.28
2023-01-20T04:47:14.611Z,97.49
2023-01-20T04:48:14.600Z,97.38
2023-01-20T04:49:14.595Z,97.70
2023-01-20T04:50:14.585Z,97.91
2023-01-20T04:51:14.577Z,97.59
2023-01-20T04:52:14.573Z,97.70
2023-01-20T04:53:14.556Z,97.70
2023-01-20T04:54:14.550Z,97.49
2023-01-20T04:55:14.871Z,97.49
2023-01-20T04:56:14.529Z,97.65
2023-01-20T04:57:14.527Z,97.65
2023-01-20T04:58:14.514Z,97.24
2023-01-20T04:59:14.519Z,97.17
2023-01-20T05:00:14.493Z,97.38
2023-01-20T05:01:14.567Z,97.44
2023-01-20T05:02:14.530Z,97.59
2023-01-20T05:03:14.462Z,97.55
2023-01-20T05:04:14.456Z,97.24
2023-01-20T05:05:14.810Z,97.17
2023-01-20T05:06:14.436Z,97.28
2023-01-20T05:07:14.431Z,97.38
2023-01-20T05:08:14.419Z,97.38
2023-01-20T05:09:14.410Z,96.97
2023-01-20T05:10:14.400Z,97.17
2023-01-20T05:11:14.393Z,96.86
2023-01-20T05:12:14.386Z,97.07
2023-01-20T05:13:14.371Z,96.97
2023-01-20T05:14:14.364Z,96.61
2023-01-20T05:15:14.712Z,97.17
2023-01-20T05:16:14.401Z,97.70
2023-01-20T05:17:14.334Z,97.34
2023-01-20T05:18:14.328Z,97.38
2023-01-20T05:19:14.324Z,97.49
2023-01-20T05:20:14.309Z,97.59
2023-01-20T05:21:14.296Z,97.38
2023-01-20T05:22:14.291Z,97.17
2023-01-20T05:23:14.282Z,97.17
2023-01-20T05:24:14.272Z,97.28
2023-01-20T05:25:14.455Z,97.59
2023-01-20T05:26:14.253Z,97.49
2023-01-20T05:27:14.244Z,97.17
2023-01-20T05:28:14.237Z,97.28
2023-01-20T05:29:14.226Z,96.97
2023-01-20T05:30:14.216Z,97.17
2023-01-20T05:31:14.370Z,97.17
2023-01-20T05:32:14.208Z,97.07
2023-01-20T05:33:14.188Z,97.28
2023-01-20T05:34:14.178Z,97.17
2023-01-20T05:35:14.555Z,96.76
2023-01-20T05:36:14.163Z,97.70
2023-01-20T05:37:14.154Z,97.59
2023-01-20T05:38:14.146Z,97.70
2023-01-20T05:39:14.139Z,96.97
2023-01-20T05:40:14.291Z,96.76
2023-01-20T05:41:14.113Z,97.17
2023-01-20T05:42:14.105Z,96.55
2023-01-20T05:43:14.102Z,95.83
2023-01-20T05:44:14.091Z,96.66
2023-01-20T05:45:14.400Z,96.66
2023-01-20T05:46:14.157Z,96.55
2023-01-20T05:47:14.096Z,96.76
2023-01-20T05:48:14.057Z,97.17
2023-01-20T05:49:14.039Z,97.17
2023-01-20T05:50:14.032Z,96.97
2023-01-20T05:51:14.024Z,96.66
2023-01-20T05:52:14.017Z,96.45
2023-01-20T05:53:14.007Z,96.70
2023-01-20T05:54:13.996Z,96.86
2023-01-20T05:55:14.344Z,96.86
2023-01-20T05:56:13.980Z,95.87
2023-01-20T05:57:13.971Z,96.18
2023-01-20T05:58:13.965Z,96.18
2023-01-20T05:59:13.950Z,95.93
2023-01-20T06:00:13.944Z,96.14
2023-01-20T06:01:13.942Z,96.55
2023-01-20T06:02:13.930Z,96.66
2023-01-20T06:03:13.930Z,96.45
2023-01-20T06:04:13.911Z,96.18
2023-01-20T06:05:14.585Z,96.03
2023-01-20T06:06:13.884Z,96.59
2023-01-20T06:07:13.894Z,96.55
2023-01-20T06:08:13.880Z,95.97
2023-01-20T06:09:13.855Z,96.14
2023-01-20T06:10:13.848Z,96.14
2023-01-20T06:11:13.838Z,95.66
2023-01-20T06:12:13.834Z,95.35
2023-01-20T06:13:13.817Z,95.25
2023-01-20T06:14:13.814Z,95.35
2023-01-20T06:15:14.017Z,94.56
2023-01-20T06:16:13.827Z,95.03
2023-01-20T06:17:13.794Z,95.39
2023-01-20T06:18:13.779Z,95.18
2023-01-20T06:19:13.788Z,95.14
2023-01-20T06:20:13.759Z,95.45
2023-01-20T06:21:13.755Z,95.87
2023-01-20T06:22:13.738Z,95.97
2023-01-20T06:23:13.726Z,96.18
2023-01-20T06:24:13.720Z,95.66
2023-01-20T06:25:14.027Z,95.14
2023-01-20T06:26:13.712Z,95.45
2023-01-20T06:27:13.911Z,95.35
2023-01-20T06:28:13.689Z,95.14
2023-01-20T06:29:13.670Z,95.14
2023-01-20T06:30:13.673Z,95.45
2023-01-20T06:31:13.806Z,95.50
2023-01-20T06:32:13.652Z,95.25
2023-01-20T06:33:13.635Z,95.45
2023-01-20T06:34:13.639Z,95.29
2023-01-20T06:35:14.043Z,95.29
2023-01-20T06:36:13.819Z,95.45
2023-01-20T06:37:13.600Z,95.45
2023-01-20T06:38:13.593Z,95.45
2023-01-20T06:39:13.579Z,95.56
2023-01-20T06:40:13.570Z,95.56
2023-01-20T06:41:13.560Z,95.76
2023-01-20T06:42:13.576Z,95.56
2023-01-20T06:43:13.543Z,95.76
2023-01-20T06:44:13.534Z,95.56
2023-01-20T06:45:13.922Z,95.66
2023-01-20T06:46:13.561Z,95.66
2023-01-20T06:47:13.506Z,95.87
2023-01-20T06:48:13.504Z,95.66
2023-01-20T06:49:13.485Z,95.56
2023-01-20T06:50:13.477Z,95.45
2023-01-20T06:51:13.497Z,95.87
2023-01-20T06:52:13.461Z,95.14
2023-01-20T06:53:13.449Z,95.76
2023-01-20T06:54:13.444Z,95.66
2023-01-20T06:55:13.690Z,95.76
2023-01-20T06:56:13.428Z,95.76
2023-01-20T06:57:13.412Z,95.45
2023-01-20T06:58:13.518Z,95.45
2023-01-20T06:59:13.466Z,95.45
2023-01-20T07:00:13.397Z,95.45
2023-01-20T07:01:13.625Z,95.45
2023-01-20T07:02:13.534Z,95.14
2023-01-20T07:03:14.240Z,95.51
2023-01-20T07:04:13.357Z,95.76
2023-01-20T07:05:13.888Z,96.18
2023-01-20T07:06:13.343Z,95.87
2023-01-20T07:07:13.339Z,95.76
2023-01-20T07:08:13.312Z,95.14
2023-01-20T07:09:13.301Z,95.14
2023-01-20T07:10:13.340Z,95.40
2023-01-20T07:11:13.291Z,95.62
2023-01-20T07:12:13.283Z,95.72
2023-01-20T07:13:13.264Z,95.51
2023-01-20T07:14:13.258Z,95.83
2023-01-20T07:15:13.683Z,95.62
2023-01-20T07:16:15.646Z,95.97
2023-01-20T07:17:13.232Z,96.03
2023-01-20T07:18:13.224Z,96.03
2023-01-20T07:19:13.225Z,96.66
2023-01-20T07:20:13.204Z,96.66
2023-01-20T07:21:13.191Z,96.97
2023-01-20T07:22:13.187Z,97.07
2023-01-20T07:23:13.191Z,96.86
2023-01-20T07:24:13.164Z,96.66
2023-01-20T07:25:13.384Z,96.34
2023-01-20T07:26:13.146Z,96.55
2023-01-20T07:27:13.138Z,96.80
2023-01-20T07:28:13.130Z,97.12
2023-01-20T07:29:13.134Z,97.01
2023-01-20T07:30:13.109Z,97.12
2023-01-20T07:31:13.149Z,97.01
2023-01-20T07:32:13.091Z,97.12
2023-01-20T07:33:13.087Z,97.43
2023-01-20T07:34:13.079Z,97.01
2023-01-20T07:35:13.344Z,97.12
2023-01-20T07:36:13.053Z,96.80
2023-01-20T07:37:13.046Z,97.12
2023-01-20T07:38:13.039Z,97.12
2023-01-20T07:39:13.108Z,96.80
2023-01-20T07:40:13.033Z,96.70
2023-01-20T07:41:13.007Z,96.59
2023-01-20T07:42:13.013Z,96.91
2023-01-20T07:43:13.011Z,96.80
2023-01-20T07:44:12.978Z,97.33
2023-01-20T07:45:13.356Z,96.80
2023-01-20T07:46:12.969Z,96.91
2023-01-20T07:47:12.960Z,96.49
2023-01-20T07:48:12.947Z,96.39
2023-01-20T07:49:12.937Z,96.80
2023-01-20T07:50:12.924Z,96.97
2023-01-20T07:51:12.926Z,96.45
2023-01-20T07:52:12.903Z,96.34
2023-01-20T07:53:12.900Z,96.55
2023-01-20T07:54:12.899Z,96.97
2023-01-20T07:55:13.340Z,97.07
2023-01-20T07:56:12.871Z,97.22
2023-01-20T07:57:12.860Z,97.28
2023-01-20T07:58:12.850Z,96.76
2023-01-20T07:59:12.844Z,96.86
2023-01-20T08:00:12.837Z,96.55
2023-01-20T08:01:13.133Z,97.17
2023-01-20T08:02:12.817Z,97.17
2023-01-20T08:03:12.805Z,97.17
2023-01-20T08:04:12.796Z,97.17
2023-01-20T08:05:13.285Z,97.17
2023-01-20T08:06:12.777Z,97.17
2023-01-20T08:07:12.768Z,97.07
2023-01-20T08:08:12.773Z,96.76
2023-01-20T08:09:12.758Z,96.97
2023-01-20T08:10:12.741Z,97.01
2023-01-20T08:11:12.793Z,96.80
2023-01-20T08:12:12.722Z,96.80
2023-01-20T08:13:12.719Z,96.49
2023-01-20T08:14:12.711Z,95.93
2023-01-20T08:15:13.043Z,96.18
2023-01-20T08:16:12.788Z,96.08
2023-01-20T08:17:12.689Z,95.76
2023-01-20T08:18:12.685Z,95.72
2023-01-20T08:19:12.663Z,94.99
2023-01-20T08:20:12.654Z,95.20
2023-01-20T08:21:12.679Z,95.66
2023-01-20T08:22:12.630Z,94.99
2023-01-20T08:23:12.621Z,95.62
2023-01-20T08:24:12.616Z,95.30
2023-01-20T08:25:12.773Z,95.09
2023-01-20T08:26:12.604Z,95.40
2023-01-20T08:27:12.603Z,95.51
2023-01-20T08:28:12.574Z,95.62
2023-01-20T08:29:12.566Z,95.25
2023-01-20T08:30:12.554Z,95.56
2023-01-20T08:31:12.689Z,95.25
2023-01-20T08:32:12.538Z,95.56
2023-01-20T08:33:12.532Z,95.62
2023-01-20T08:34:12.520Z,95.40
2023-01-20T08:35:12.761Z,95.14
2023-01-20T08:36:12.508Z,95.40
2023-01-20T08:37:12.497Z,95.14
2023-01-20T08:38:12.480Z,95.09
2023-01-20T08:39:12.475Z,95.30
2023-01-20T08:40:12.464Z,95.51
2023-01-20T08:41:12.456Z,95.51
2023-01-20T08:42:12.449Z,95.62
2023-01-20T08:43:12.465Z,95.72
2023-01-20T08:44:12.424Z,95.57
2023-01-20T08:45:12.840Z,95.20
2023-01-20T08:46:12.492Z,95.83
2023-01-20T08:47:12.401Z,95.40
2023-01-20T08:48:12.388Z,95.20
2023-01-20T08:49:12.384Z,95.62
2023-01-20T08:50:12.375Z,95.62
2023-01-20T08:51:12.377Z,95.72
2023-01-20T08:52:12.385Z,95.51
2023-01-20T08:53:12.344Z,95.93
2023-01-20T08:54:12.340Z,95.89
2023-01-20T08:55:12.363Z,95.89
2023-01-20T08:56:12.320Z,96.24
2023-01-20T08:57:12.309Z,96.24
2023-01-20T08:58:12.306Z,95.93
2023-01-20T08:59:12.329Z,96.03
2023-01-20T09:00:12.280Z,96.24
2023-01-20T09:01:12.299Z,96.09
2023-01-20T09:02:12.293Z,95.93
2023-01-20T09:03:12.292Z,96.24
2023-01-20T09:04:12.254Z,95.83
2023-01-20T09:05:12.448Z,96.24
2023-01-20T09:06:12.223Z,96.24
2023-01-20T09:07:12.219Z,95.93
2023-01-20T09:08:12.457Z,96.14
2023-01-20T09:09:12.282Z,96.45
2023-01-20T09:10:12.224Z,96.86
2023-01-20T09:11:12.255Z,96.03
2023-01-20T09:12:12.169Z,96.14
2023-01-20T09:13:12.163Z,96.28
2023-01-20T09:14:12.154Z,96.18
2023-01-20T09:15:12.276Z,96.70
2023-01-20T09:16:12.179Z,97.12
2023-01-20T09:17:12.124Z,96.91
2023-01-20T09:18:12.115Z,97.01
2023-01-20T09:19:12.120Z,96.75
2023-01-20T09:20:12.096Z,96.64
2023-01-20T09:21:12.088Z,96.12
2023-01-20T09:22:12.084Z,96.53
2023-01-20T09:23:12.073Z,96.95
2023-01-20T09:24:12.056Z,96.75
2023-01-20T09:25:12.059Z,96.64
2023-01-20T09:26:13.283Z,96.85
2023-01-20T09:27:12.038Z,97.06
2023-01-20T09:28:12.036Z,97.16
2023-01-20T09:29:12.017Z,97.27
2023-01-20T09:30:12.012Z,96.75
2023-01-20T09:31:12.180Z,97.16
2023-01-20T09:32:11.987Z,97.16
2023-01-20T09:33:11.987Z,96.95
2023-01-20T09:34:13.886Z,96.64
2023-01-20T09:35:11.958Z,96.48
2023-01-20T09:36:11.964Z,96.64
2023-01-20T09:37:11.941Z,97.31
2023-01-20T09:38:11.932Z,97.10
2023-01-20T09:39:11.925Z,96.69
2023-01-20T09:40:11.916Z,96.06
2023-01-20T09:41:11.908Z,96.26
2023-01-20T09:42:11.897Z,95.95
2023-01-20T09:43:11.882Z,95.75
2023-01-20T09:44:11.870Z,95.75
2023-01-20T09:45:11.862Z,95.75
2023-01-20T09:46:11.895Z,95.75
2023-01-20T09:47:11.932Z,96.06
2023-01-20T09:48:11.834Z,96.26
2023-01-20T09:49:11.831Z,97.20
2023-01-20T09:50:11.822Z,96.89
2023-01-20T09:51:11.813Z,96.69
2023-01-20T09:52:11.800Z,97.31
2023-01-20T09:53:11.791Z,97.10
2023-01-20T09:54:11.780Z,97.62
2023-01-20T09:55:11.774Z,97.41
2023-01-20T09:56:11.772Z,97.41
2023-01-20T09:57:11.764Z,97.47
2023-01-20T09:58:11.744Z,97.72
2023-01-20T09:59:11.738Z,98.04
2023-01-20T10:00:11.739Z,97.78
2023-01-20T10:01:11.843Z,97.58
2023-01-20T10:02:11.707Z,97.78
2023-01-20T10:03:11.723Z,97.99
2023-01-20T10:04:11.699Z,97.78
2023-01-20T10:05:11.753Z,97.78
2023-01-20T10:06:11.680Z,97.78
2023-01-20T10:07:11.672Z,97.58
2023-01-20T10:08:11.649Z,97.06
2023-01-20T10:09:11.643Z,97.20
2023-01-20T10:10:11.643Z,97.06
2023-01-20T10:11:11.647Z,96.26
2023-01-20T10:12:11.615Z,96.37
2023-01-20T10:13:11.807Z,96.37
2023-01-20T10:14:11.594Z,96.48
2023-01-20T10:15:11.586Z,96.37
2023-01-20T10:16:11.607Z,96.16
2023-01-20T10:17:11.570Z,96.26
2023-01-20T10:18:11.586Z,96.37
2023-01-20T10:19:11.627Z,96.89
2023-01-20T10:20:11.561Z,96.69
2023-01-20T10:21:11.530Z,97.31
2023-01-20T10:22:11.543Z,97.00
2023-01-20T10:23:11.513Z,96.58
2023-01-20T10:24:11.523Z,97.10
2023-01-20T10:25:11.501Z,97.31
2023-01-20T10:26:11.483Z,97.10
2023-01-20T10:27:11.477Z,96.89
2023-01-20T10:28:11.463Z,97.62
2023-01-20T10:29:11.458Z,97.83
2023-01-20T10:30:11.446Z,97.62
2023-01-20T10:31:11.538Z,97.31
2023-01-20T10:32:11.428Z,97.31
2023-01-20T10:33:11.437Z,97.72
2023-01-20T10:34:11.415Z,97.41
2023-01-20T10:35:11.426Z,97.10
2023-01-20T10:36:11.387Z,97.41
2023-01-20T10:37:11.382Z,96.69
2023-01-20T10:38:11.376Z,96.89
2023-01-20T10:39:11.363Z,97.00
2023-01-20T10:40:11.393Z,97.10
2023-01-20T10:41:12.010Z,97.31
2023-01-20T10:42:11.333Z,97.31
2023-01-20T10:43:11.328Z,97.20
2023-01-20T10:44:11.321Z,97.52
2023-01-20T10:45:11.347Z,96.89
2023-01-20T10:46:12.578Z,97.20
2023-01-20T10:47:13.569Z,97.16
2023-01-20T10:48:11.277Z,97.31
2023-01-20T10:49:11.268Z,97.16
2023-01-20T10:50:11.260Z,97.20
2023-01-20T10:51:11.304Z,97.00
2023-01-20T10:52:11.238Z,96.69
2023-01-20T10:53:13.395Z,97.20
2023-01-20T10:54:11.221Z,97.00
2023-01-20T10:55:11.212Z,97.10
2023-01-20T10:56:11.203Z,96.26
2023-01-20T10:57:11.204Z,96.16
2023-01-20T10:58:11.186Z,96.26
2023-01-20T10:59:11.188Z,96.16
2023-01-20T11:00:11.164Z,95.95
2023-01-20T11:01:11.154Z,96.26
2023-01-20T11:02:12.635Z,96.79
2023-01-20T11:03:11.195Z,96.85
2023-01-20T11:04:11.129Z,96.89
2023-01-20T11:05:11.119Z,96.22
2023-01-20T11:06:11.108Z,96.06
2023-01-20T11:07:11.211Z,95.85
2023-01-20T11:08:11.089Z,95.85
2023-01-20T11:09:11.081Z,95.75
2023-01-20T11:10:11.076Z,95.85
2023-01-20T11:11:11.067Z,95.70
2023-01-20T11:12:11.051Z,95.75
2023-01-20T11:13:11.047Z,95.39
2023-01-20T11:14:11.038Z,95.70
2023-01-20T11:15:11.037Z,95.60
2023-01-20T11:16:11.050Z,95.29
2023-01-20T11:17:11.008Z,95.29
2023-01-20T11:18:10.995Z,95.33
2023-01-20T11:19:10.989Z,95.29
2023-01-20T11:20:10.988Z,95.33
2023-01-20T11:21:10.973Z,95.60
2023-01-20T11:22:10.961Z,95.33
2023-01-20T11:23:11.007Z,95.50
2023-01-20T11:24:10.945Z,95.81
2023-01-20T11:25:10.932Z,95.70
2023-01-20T11:26:10.956Z,95.81
2023-01-20T11:27:10.917Z,96.33
2023-01-20T11:28:10.902Z,96.01
2023-01-20T11:29:10.899Z,96.22
2023-01-20T11:30:10.881Z,96.33
2023-01-20T11:31:11.024Z,95.70
2023-01-20T11:32:10.863Z,95.76
2023-01-20T11:33:10.878Z,95.08
2023-01-20T11:34:10.855Z,95.39
2023-01-20T11:35:10.840Z,95.60
2023-01-20T11:36:10.837Z,95.60
2023-01-20T11:37:10.837Z,95.39
2023-01-20T11:38:10.813Z,95.39
2023-01-20T11:39:10.826Z,95.29
2023-01-20T11:40:10.790Z,95.39
2023-01-20T11:41:10.788Z,95.18
2023-01-20T11:42:10.770Z,95.18
2023-01-20T11:43:10.765Z,95.18
2023-01-20T11:44:10.756Z,95.18
2023-01-20T11:45:21.295Z,95.39
2023-01-20T11:46:10.810Z,95.39
2023-01-20T11:47:10.726Z,95.39
2023-01-20T11:48:10.723Z,95.35
2023-01-20T11:49:10.715Z,95.18
2023-01-20T11:50:10.696Z,95.66
2023-01-20T11:51:10.690Z,95.14
2023-01-20T11:52:10.675Z,95.35
2023-01-20T11:53:10.672Z,95.25
2023-01-20T11:54:10.674Z,95.35
2023-01-20T11:55:10.685Z,95.76
2023-01-20T11:56:10.645Z,95.45
2023-01-20T11:57:10.635Z,95.14
2023-01-20T11:58:10.622Z,95.56
2023-01-20T11:59:10.618Z,95.45
2023-01-20T12:00:10.604Z,95.14
2023-01-20T12:01:10.598Z,95.25
2023-01-20T12:02:10.614Z,95.25
2023-01-20T12:03:10.604Z,95.14
2023-01-20T12:04:10.619Z,95.14
2023-01-20T12:05:10.556Z,95.35
2023-01-20T12:06:10.624Z,95.45
2023-01-20T12:07:10.540Z,94.93
2023-01-20T12:08:10.547Z,95.03
2023-01-20T12:09:10.524Z,94.82
2023-01-20T12:10:10.519Z,94.82
2023-01-20T12:11:10.529Z,94.93
2023-01-20T12:12:10.501Z,94.82
2023-01-20T12:13:10.481Z,94.72
2023-01-20T12:14:10.475Z,95.40
2023-01-20T12:15:10.464Z,95.30
2023-01-20T12:16:10.630Z,95.25
2023-01-20T12:17:10.446Z,95.35
2023-01-20T12:18:10.447Z,95.14
2023-01-20T12:19:10.445Z,95.09
2023-01-20T12:20:10.425Z,95.14
2023-01-20T12:21:10.459Z,95.25
2023-01-20T12:22:10.423Z,94.72
2023-01-20T12:23:10.413Z,94.72
2023-01-20T12:24:10.403Z,95.30
2023-01-20T12:25:10.747Z,95.56
2023-01-20T12:26:10.432Z,95.20
2023-01-20T12:27:10.373Z,95.25
2023-01-20T12:28:10.346Z,95.25
2023-01-20T12:29:10.333Z,94.57
2023-01-20T12:30:10.332Z,94.78
2023-01-20T12:31:10.349Z,94.89
2023-01-20T12:32:10.308Z,94.99
2023-01-20T12:33:10.314Z,94.16
2023-01-20T12:34:10.292Z,94.57
2023-01-20T12:35:10.297Z,94.20
2023-01-20T12:36:10.270Z,94.06
2023-01-20T12:37:10.274Z,94.20
2023-01-20T12:38:10.265Z,93.85
2023-01-20T12:39:10.244Z,94.16
2023-01-20T12:40:10.239Z,94.20
2023-01-20T12:41:10.223Z,93.74
2023-01-20T12:42:10.229Z,93.64
2023-01-20T12:43:10.265Z,93.58
2023-01-20T12:44:10.200Z,93.74
2023-01-20T12:45:10.193Z,93.85
2023-01-20T12:46:10.281Z,93.85
2023-01-20T12:47:10.166Z,93.12
2023-01-20T12:48:10.165Z,93.54
2023-01-20T12:49:10.160Z,92.91
2023-01-20T12:50:10.140Z,93.12
2023-01-20T12:51:10.140Z,93.43
2023-01-20T12:52:10.182Z,93.23